Wilsonville, Georgia
Current Conditions -  °F | °C
As of 7:53 PM on Sunday 23 Nov 2014 (Local Time) from KAMG Reporting Station
Moderate Rain Moderate Rain  
Wind Chill: 66°   Ceiling: 7500
Heat Index: 66°   Visibility: 3mi
Dew Point: 64°   Wind: 6mph
Humidity: 93%   Direction: 280°W
Pressure: 29.87"   Gusts: NA
Location:  31.4253°N, 82.5972°W
Report Text: KAMG 240053Z AUTO 28005KT 3SM RA BR SCT020 BKN075 OVC100 19/18 A2987 RMK AO2 WSHFT 2344 LTG DSNT E-SW RAE04B27 SLP113 P0019 T01890178
Loading
Personal Weather Stations






























Interactive Weather Map New forecast layout! Learn more

10-Day Weather Forecast

Advertisements
Track Severe Weather on mobile